createdAt,value
2022-08-30T00:00:15.497Z,7.35
2022-08-30T00:01:06.671Z,7.62
2022-08-30T00:01:53.447Z,7.37
2022-08-30T00:02:40.371Z,7.57
2022-08-30T00:03:27.662Z,7.60
2022-08-30T00:04:14.663Z,7.43
2022-08-30T00:05:02.194Z,7.35
2022-08-30T00:05:49.388Z,6.90
2022-08-30T00:06:36.159Z,7.40
2022-08-30T00:07:23.547Z,7.50
2022-08-30T00:08:10.646Z,7.90
2022-08-30T00:08:57.584Z,7.82
2022-08-30T00:09:44.406Z,7.47
2022-08-30T00:10:31.474Z,7.93
2022-08-30T00:11:24.739Z,7.40
2022-08-30T00:12:58.818Z,8.20
2022-08-30T00:13:46.479Z,7.28
2022-08-30T00:14:33.359Z,7.40
2022-08-30T00:15:21.067Z,7.53
2022-08-30T00:16:08.384Z,6.97
2022-08-30T00:16:55.621Z,7.70
2022-08-30T00:17:43.680Z,7.37
2022-08-30T00:18:30.508Z,6.90
2022-08-30T00:19:17.606Z,7.30
2022-08-30T00:20:07.956Z,7.28
2022-08-30T00:20:56.060Z,7.50
2022-08-30T00:21:42.831Z,7.87
2022-08-30T00:22:29.838Z,7.70
2022-08-30T00:23:18.720Z,7.50
2022-08-30T00:24:05.787Z,7.75
2022-08-30T00:24:52.739Z,7.72
2022-08-30T00:25:40.042Z,7.45
2022-08-30T00:26:27.347Z,8.13
2022-08-30T00:27:14.181Z,8.15
2022-08-30T00:28:01.365Z,7.47
2022-08-30T00:28:48.187Z,7.12
2022-08-30T00:29:35.015Z,7.55
2022-08-30T00:30:22.217Z,7.87
2022-08-30T00:31:09.367Z,7.45
2022-08-30T00:31:56.286Z,7.82
2022-08-30T00:32:43.551Z,7.45
2022-08-30T00:33:30.752Z,7.93
2022-08-30T00:34:18.273Z,7.60
2022-08-30T00:35:07.200Z,7.60
2022-08-30T00:35:54.455Z,7.35
2022-08-30T00:36:41.265Z,7.35
2022-08-30T00:37:28.484Z,8.02
2022-08-30T00:38:15.423Z,7.55
2022-08-30T00:39:02.343Z,7.53
2022-08-30T00:39:49.285Z,7.93
2022-08-30T00:40:36.520Z,7.20
2022-08-30T00:41:23.426Z,8.20
2022-08-30T00:42:11.045Z,7.65
2022-08-30T00:43:00.018Z,7.35
2022-08-30T00:43:52.518Z,8.00
2022-08-30T00:44:40.137Z,7.75
2022-08-30T00:45:34.570Z,8.07
2022-08-30T00:46:21.398Z,8.15
2022-08-30T00:47:08.441Z,7.62
2022-08-30T00:47:55.650Z,7.87
2022-08-30T00:48:45.805Z,8.00
2022-08-30T00:49:34.142Z,8.00
2022-08-30T00:50:25.760Z,7.35
2022-08-30T00:51:14.517Z,8.27
2022-08-30T00:52:02.445Z,7.97
2022-08-30T00:53:43.266Z,7.40
2022-08-30T00:54:31.707Z,7.30
2022-08-30T00:55:19.958Z,7.93
2022-08-30T00:56:07.599Z,7.68
2022-08-30T00:56:54.560Z,7.65
2022-08-30T00:57:43.808Z,7.43
2022-08-30T00:58:39.719Z,7.45
2022-08-30T00:59:26.800Z,7.62
2022-08-30T01:00:15.544Z,7.70
2022-08-30T01:01:02.994Z,7.80
2022-08-30T01:01:50.798Z,7.95
2022-08-30T01:02:38.016Z,7.05
2022-08-30T01:03:25.103Z,7.75
2022-08-30T01:04:13.784Z,7.82
2022-08-30T01:05:02.507Z,7.22
2022-08-30T01:05:51.729Z,9.05
2022-08-30T01:06:40.121Z,7.87
2022-08-30T01:07:26.968Z,7.85
2022-08-30T01:08:15.852Z,8.32
2022-08-30T01:09:04.726Z,8.70
2022-08-30T01:09:51.603Z,8.00
2022-08-30T01:10:39.120Z,7.62
2022-08-30T01:11:26.849Z,7.72
2022-08-30T01:12:13.812Z,8.10
2022-08-30T01:13:52.399Z,7.40
2022-08-30T01:14:39.368Z,7.45
2022-08-30T01:15:26.416Z,8.35
2022-08-30T01:16:15.380Z,7.57
2022-08-30T01:17:02.879Z,7.68
2022-08-30T01:17:50.022Z,7.53
2022-08-30T01:18:37.402Z,7.43
2022-08-30T01:19:49.100Z,7.75
2022-08-30T01:20:58.445Z,7.50
2022-08-30T01:21:50.320Z,7.25
2022-08-30T01:22:44.681Z,8.30
2022-08-30T01:23:39.716Z,7.80
2022-08-30T01:24:29.074Z,7.85
2022-08-30T01:25:19.256Z,7.47
2022-08-30T01:26:06.466Z,7.65
2022-08-30T01:26:53.287Z,8.00
2022-08-30T01:27:44.933Z,7.97
2022-08-30T01:28:32.496Z,7.47
2022-08-30T01:29:22.244Z,7.72
2022-08-30T01:30:10.030Z,7.90
2022-08-30T01:30:57.333Z,8.80
2022-08-30T01:31:44.195Z,8.00
2022-08-30T01:32:30.959Z,7.95
2022-08-30T01:33:20.370Z,8.20
2022-08-30T01:34:08.148Z,8.10
2022-08-30T01:34:56.293Z,7.95
2022-08-30T01:36:01.346Z,7.97
2022-08-30T01:36:49.253Z,7.97
2022-08-30T01:37:36.960Z,7.70
2022-08-30T01:38:31.136Z,7.80
2022-08-30T01:39:19.106Z,7.87
2022-08-30T01:40:07.428Z,7.50
2022-08-30T01:41:09.875Z,7.87
2022-08-30T01:41:56.773Z,7.87
2022-08-30T01:42:43.566Z,7.45
2022-08-30T01:43:30.360Z,8.35
2022-08-30T01:44:17.281Z,7.87
2022-08-30T01:45:05.473Z,7.90
2022-08-30T01:45:52.458Z,7.78
2022-08-30T01:46:45.786Z,8.48
2022-08-30T01:47:32.856Z,8.35
2022-08-30T01:48:21.074Z,7.68
2022-08-30T01:49:12.045Z,7.90
2022-08-30T01:49:58.909Z,7.78
2022-08-30T01:50:45.718Z,7.90
2022-08-30T01:51:32.859Z,7.90
2022-08-30T01:52:20.102Z,7.78
2022-08-30T01:53:07.230Z,8.00
2022-08-30T01:53:54.808Z,8.98
2022-08-30T01:54:43.152Z,7.72
2022-08-30T01:55:29.945Z,7.25
2022-08-30T01:56:17.522Z,7.80
2022-08-30T01:57:05.871Z,8.25
2022-08-30T01:57:52.847Z,8.40
2022-08-30T01:58:40.620Z,8.45
2022-08-30T01:59:27.679Z,8.23
2022-08-30T02:00:14.968Z,8.23
2022-08-30T02:01:04.738Z,8.10
2022-08-30T02:01:52.219Z,7.72
2022-08-30T02:02:39.766Z,8.40
2022-08-30T02:03:30.640Z,8.30
2022-08-30T02:04:18.456Z,8.50
2022-08-30T02:05:06.340Z,8.10
2022-08-30T02:05:53.221Z,8.23
2022-08-30T02:06:40.430Z,8.75
2022-08-30T02:07:27.287Z,8.70
2022-08-30T02:08:14.308Z,7.75
2022-08-30T02:09:01.841Z,8.55
2022-08-30T02:09:48.742Z,8.55
2022-08-30T02:10:35.819Z,8.32
2022-08-30T02:11:22.813Z,8.60
2022-08-30T02:12:09.681Z,8.13
2022-08-30T02:12:56.639Z,8.60
2022-08-30T02:13:44.760Z,8.27
2022-08-30T02:14:31.633Z,9.30
2022-08-30T02:15:18.933Z,8.82
2022-08-30T02:16:07.865Z,8.38
2022-08-30T02:16:54.812Z,8.43
2022-08-30T02:17:42.595Z,8.52
2022-08-30T02:18:29.799Z,8.38
2022-08-30T02:19:16.685Z,8.85
2022-08-30T02:20:04.968Z,8.00
2022-08-30T02:20:52.098Z,8.30
2022-08-30T02:21:38.863Z,8.20
2022-08-30T02:22:25.716Z,8.52
2022-08-30T02:23:12.659Z,8.00
2022-08-30T02:23:59.687Z,9.73
2022-08-30T02:24:46.674Z,8.45
2022-08-30T02:25:33.466Z,8.77
2022-08-30T02:26:20.601Z,8.55
2022-08-30T02:27:07.803Z,8.63
2022-08-30T02:27:54.641Z,8.68
2022-08-30T02:28:42.800Z,8.68
2022-08-30T02:29:37.208Z,8.43
2022-08-30T02:30:24.137Z,8.73
2022-08-30T02:31:11.454Z,8.60
2022-08-30T02:31:58.605Z,8.30
2022-08-30T02:32:45.366Z,9.02
2022-08-30T02:33:32.385Z,8.43
2022-08-30T02:34:19.388Z,8.68
2022-08-30T02:35:06.699Z,8.30
2022-08-30T02:35:53.847Z,8.68
2022-08-30T02:36:41.813Z,8.35
2022-08-30T02:37:28.913Z,8.65
2022-08-30T02:38:15.774Z,8.20
2022-08-30T02:39:07.332Z,8.50
2022-08-30T02:39:54.146Z,8.88
2022-08-30T02:40:41.110Z,8.60
2022-08-30T02:41:28.135Z,8.32
2022-08-30T02:42:14.945Z,8.38
2022-08-30T02:43:01.766Z,8.85
2022-08-30T02:43:48.778Z,8.68
2022-08-30T02:44:35.605Z,8.10
2022-08-30T02:45:22.727Z,8.05
2022-08-30T02:46:09.819Z,8.82
2022-08-30T02:46:57.003Z,9.13
2022-08-30T02:47:46.993Z,8.40
2022-08-30T02:48:34.327Z,8.48
2022-08-30T02:49:33.275Z,8.63
2022-08-30T02:50:20.915Z,9.32
2022-08-30T02:51:11.545Z,8.30
2022-08-30T02:51:58.727Z,9.48
2022-08-30T02:52:48.183Z,8.15
2022-08-30T02:53:35.646Z,8.70
2022-08-30T02:54:23.607Z,8.68
2022-08-30T02:55:11.057Z,8.43
2022-08-30T02:55:58.087Z,8.88
2022-08-30T02:56:44.976Z,9.05
2022-08-30T02:57:31.866Z,8.70
2022-08-30T02:58:18.744Z,8.10
2022-08-30T02:59:05.523Z,8.18
2022-08-30T02:59:52.544Z,7.97
2022-08-30T03:00:39.976Z,7.97
2022-08-30T03:01:29.303Z,8.35
2022-08-30T03:02:16.593Z,8.27
2022-08-30T03:03:04.285Z,8.45
2022-08-30T03:03:51.314Z,8.75
2022-08-30T03:04:39.399Z,8.65
2022-08-30T03:05:26.647Z,9.40
2022-08-30T03:06:14.380Z,9.65
2022-08-30T03:07:01.131Z,8.20
2022-08-30T03:07:48.009Z,9.23
2022-08-30T03:08:34.815Z,8.68
2022-08-30T03:09:22.406Z,8.50
2022-08-30T03:10:10.183Z,9.40
2022-08-30T03:10:59.631Z,9.07
2022-08-30T03:11:46.489Z,9.00
2022-08-30T03:12:33.502Z,8.73
2022-08-30T03:13:21.554Z,8.65
2022-08-30T03:14:08.445Z,9.20
2022-08-30T03:14:55.320Z,8.52
2022-08-30T03:15:42.354Z,8.57
2022-08-30T03:16:29.132Z,8.70
2022-08-30T03:17:17.039Z,9.45
2022-08-30T03:18:04.283Z,8.60
2022-08-30T03:18:51.441Z,8.43
2022-08-30T03:19:38.852Z,9.32
2022-08-30T03:20:26.356Z,9.18
2022-08-30T03:21:14.788Z,9.80
2022-08-30T03:22:02.292Z,8.88
2022-08-30T03:22:49.572Z,10.30
2022-08-30T03:23:36.566Z,8.90
2022-08-30T03:24:23.346Z,8.68
2022-08-30T03:25:10.782Z,9.20
2022-08-30T03:25:57.984Z,8.43
2022-08-30T03:26:46.575Z,9.05
2022-08-30T03:27:33.626Z,9.32
2022-08-30T03:28:20.461Z,9.18
2022-08-30T03:29:07.707Z,9.48
2022-08-30T03:29:57.281Z,8.38
2022-08-30T03:30:44.456Z,9.20
2022-08-30T03:31:31.379Z,8.88
2022-08-30T03:32:25.101Z,8.65
2022-08-30T03:33:12.274Z,8.93
2022-08-30T03:33:59.390Z,9.10
2022-08-30T03:34:46.329Z,8.40
2022-08-30T03:35:33.417Z,8.80
2022-08-30T03:36:20.356Z,8.52
2022-08-30T03:37:07.207Z,8.65
2022-08-30T03:37:56.094Z,8.90
2022-08-30T03:38:43.552Z,10.65
2022-08-30T03:39:30.487Z,8.52
2022-08-30T03:40:18.839Z,9.25
2022-08-30T03:41:06.122Z,9.43
2022-08-30T03:41:54.835Z,9.30
2022-08-30T03:42:43.482Z,9.75
2022-08-30T03:43:33.454Z,9.68
2022-08-30T03:44:21.421Z,9.48
2022-08-30T03:45:08.831Z,8.73
2022-08-30T03:45:57.262Z,9.57
2022-08-30T03:46:45.440Z,9.52
2022-08-30T03:47:32.349Z,9.10
2022-08-30T03:48:19.293Z,9.02
2022-08-30T03:49:06.641Z,9.10
2022-08-30T03:49:53.527Z,9.63
2022-08-30T03:50:40.846Z,9.40
2022-08-30T03:51:27.780Z,9.02
2022-08-30T03:52:14.696Z,9.07
2022-08-30T03:53:02.168Z,9.40
2022-08-30T03:53:49.293Z,8.43
2022-08-30T03:54:36.143Z,9.55
2022-08-30T03:55:25.269Z,9.30
2022-08-30T03:56:12.197Z,8.80
2022-08-30T03:56:59.063Z,10.15
2022-08-30T03:57:46.048Z,9.43
2022-08-30T03:58:33.330Z,9.50
2022-08-30T03:59:20.247Z,8.88
2022-08-30T04:00:07.903Z,8.90
2022-08-30T04:00:54.876Z,9.32
2022-08-30T04:01:46.072Z,9.40
2022-08-30T04:02:33.095Z,9.50
2022-08-30T04:03:26.015Z,9.75
2022-08-30T04:04:16.286Z,10.05
2022-08-30T04:05:06.173Z,9.60
2022-08-30T04:05:54.697Z,8.77
2022-08-30T04:06:41.722Z,9.27
2022-08-30T04:07:28.659Z,9.68
2022-08-30T04:08:16.134Z,9.20
2022-08-30T04:09:03.128Z,9.88
2022-08-30T04:09:49.938Z,9.20
2022-08-30T04:10:37.005Z,8.45
2022-08-30T04:11:23.839Z,10.15
2022-08-30T04:12:10.687Z,8.45
2022-08-30T04:12:57.680Z,9.00
2022-08-30T04:13:44.706Z,8.77
2022-08-30T04:14:31.649Z,9.52
2022-08-30T04:15:19.690Z,8.95
2022-08-30T04:16:06.722Z,8.63
2022-08-30T04:16:53.668Z,9.60
2022-08-30T04:17:40.726Z,10.02
2022-08-30T04:18:27.619Z,10.25
2022-08-30T04:19:14.527Z,9.50
2022-08-30T04:20:02.049Z,9.48
2022-08-30T04:20:49.046Z,9.02
2022-08-30T04:21:42.750Z,9.38
2022-08-30T04:22:30.195Z,9.95
2022-08-30T04:23:17.166Z,9.73
2022-08-30T04:24:04.880Z,10.25
2022-08-30T04:24:51.707Z,9.52
2022-08-30T04:25:39.960Z,9.23
2022-08-30T04:26:29.431Z,8.98
2022-08-30T04:27:20.330Z,9.68
2022-08-30T04:28:08.945Z,9.57
2022-08-30T04:28:56.342Z,9.27
2022-08-30T04:29:44.035Z,10.05
2022-08-30T04:30:30.935Z,9.35
2022-08-30T04:31:19.163Z,9.43
2022-08-30T04:32:06.228Z,9.65
2022-08-30T04:32:58.077Z,9.32
2022-08-30T04:33:45.839Z,9.85
2022-08-30T04:34:32.901Z,9.70
2022-08-30T04:35:20.110Z,9.65
2022-08-30T04:36:08.762Z,9.27
2022-08-30T04:36:55.590Z,10.05
2022-08-30T04:37:42.330Z,9.07
2022-08-30T04:38:30.531Z,9.77
2022-08-30T04:39:20.216Z,10.02
2022-08-30T04:40:08.213Z,9.40
2022-08-30T04:40:55.477Z,9.82
2022-08-30T04:41:42.466Z,9.40
2022-08-30T04:42:32.721Z,10.75
2022-08-30T04:43:19.528Z,9.45
2022-08-30T04:44:06.641Z,9.18
2022-08-30T04:44:55.956Z,9.33
2022-08-30T04:45:43.442Z,9.25
2022-08-30T04:46:30.813Z,9.00
2022-08-30T04:47:18.696Z,9.70
2022-08-30T04:48:05.846Z,9.52
2022-08-30T04:48:52.620Z,9.25
2022-08-30T04:49:39.687Z,9.65
2022-08-30T04:50:26.726Z,9.13
2022-08-30T04:51:15.529Z,8.77
2022-08-30T04:52:02.687Z,9.23
2022-08-30T04:52:49.525Z,9.02
2022-08-30T04:53:36.814Z,9.55
2022-08-30T04:54:23.629Z,9.23
2022-08-30T04:55:11.121Z,9.20
2022-08-30T04:55:57.892Z,9.65
2022-08-30T04:56:44.849Z,8.85
2022-08-30T04:57:31.761Z,9.38
2022-08-30T04:58:18.673Z,8.93
2022-08-30T04:59:05.987Z,8.38
2022-08-30T04:59:53.128Z,9.30
2022-08-30T05:00:42.287Z,8.90
2022-08-30T05:01:31.849Z,8.93
2022-08-30T05:02:25.119Z,8.60
2022-08-30T05:03:12.971Z,9.02
2022-08-30T05:04:00.375Z,8.68
2022-08-30T05:05:06.275Z,8.60
2022-08-30T05:05:53.234Z,8.82
2022-08-30T05:06:40.060Z,9.00
2022-08-30T05:07:26.960Z,8.77
2022-08-30T05:08:16.327Z,9.07
2022-08-30T05:09:03.567Z,9.57
2022-08-30T05:09:50.407Z,8.75
2022-08-30T05:10:45.411Z,9.38
2022-08-30T05:11:32.322Z,8.65
2022-08-30T05:12:19.261Z,8.55
2022-08-30T05:13:06.529Z,8.20
2022-08-30T05:13:53.485Z,8.95
2022-08-30T05:14:40.288Z,9.70
2022-08-30T05:15:27.081Z,8.65
2022-08-30T05:16:23.654Z,8.88
2022-08-30T05:17:10.566Z,8.70
2022-08-30T05:17:57.682Z,8.63
2022-08-30T05:18:49.126Z,8.60
2022-08-30T05:19:36.006Z,7.93
2022-08-30T05:20:22.801Z,8.45
2022-08-30T05:21:12.034Z,8.57
2022-08-30T05:21:58.807Z,9.13
2022-08-30T05:22:53.955Z,8.13
2022-08-30T05:23:41.720Z,7.90
2022-08-30T05:24:28.487Z,7.90
2022-08-30T05:25:19.962Z,8.90
2022-08-30T05:26:10.002Z,7.57
2022-08-30T05:26:56.781Z,8.85
2022-08-30T05:27:43.639Z,8.07
2022-08-30T05:28:30.361Z,8.70
2022-08-30T05:29:17.149Z,8.63
2022-08-30T05:30:06.397Z,8.93
2022-08-30T05:30:53.243Z,7.72
2022-08-30T05:31:40.177Z,7.32
2022-08-30T05:32:27.053Z,7.75
2022-08-30T05:33:13.794Z,7.32
2022-08-30T05:34:00.828Z,7.75
2022-08-30T05:34:47.658Z,7.85
2022-08-30T05:36:29.031Z,7.85
2022-08-30T05:38:02.513Z,7.57
2022-08-30T05:38:50.700Z,7.37
2022-08-30T05:39:50.853Z,7.37
2022-08-30T05:40:41.674Z,7.95
2022-08-30T05:42:16.829Z,8.13
2022-08-30T05:43:03.767Z,8.32
2022-08-30T05:43:53.710Z,8.27
2022-08-30T05:44:40.640Z,8.82
2022-08-30T05:45:31.174Z,8.60
2022-08-30T05:46:20.010Z,8.90
2022-08-30T05:47:07.019Z,7.72
2022-08-30T05:47:53.979Z,7.53
2022-08-30T05:48:41.003Z,8.48
2022-08-30T05:49:27.936Z,8.10
2022-08-30T05:50:15.468Z,8.45
2022-08-30T05:51:12.960Z,8.40
2022-08-30T05:51:59.754Z,8.65
2022-08-30T05:52:46.847Z,8.20
2022-08-30T05:53:34.246Z,8.65
2022-08-30T05:54:21.035Z,9.20
2022-08-30T05:55:09.220Z,9.38
2022-08-30T05:55:56.070Z,10.02
2022-08-30T05:56:45.457Z,11.95
2022-08-30T05:57:34.025Z,10.10
2022-08-30T05:58:22.402Z,9.55
2022-08-30T05:59:09.478Z,9.73
2022-08-30T05:59:56.247Z,9.82
2022-08-30T06:00:43.046Z,9.73
2022-08-30T06:01:33.299Z,10.35
2022-08-30T06:02:20.189Z,9.65
2022-08-30T06:03:07.118Z,10.27
2022-08-30T06:03:55.189Z,9.32
2022-08-30T06:04:42.086Z,9.70
2022-08-30T06:05:30.179Z,9.00
2022-08-30T06:06:22.736Z,9.90
2022-08-30T06:07:12.950Z,9.00
2022-08-30T06:08:02.122Z,9.38
2022-08-30T06:08:49.522Z,9.40
2022-08-30T06:09:36.414Z,9.40
2022-08-30T06:10:23.159Z,8.95
2022-08-30T06:11:10.008Z,9.13
2022-08-30T06:11:57.942Z,8.95
2022-08-30T06:12:44.810Z,8.73
2022-08-30T06:13:32.541Z,8.90
2022-08-30T06:14:19.474Z,9.25
2022-08-30T06:15:07.202Z,8.60
2022-08-30T06:15:54.790Z,9.30
2022-08-30T06:16:44.279Z,9.50
2022-08-30T06:17:31.362Z,9.32
2022-08-30T06:18:18.981Z,9.00
2022-08-30T06:19:16.079Z,8.85
2022-08-30T06:20:03.234Z,9.07
2022-08-30T06:20:51.987Z,8.82
2022-08-30T06:21:41.334Z,9.45
2022-08-30T06:22:28.210Z,9.32
2022-08-30T06:23:17.818Z,9.38
2022-08-30T06:24:06.418Z,10.03
2022-08-30T06:24:57.509Z,9.25
2022-08-30T06:25:45.359Z,9.50
2022-08-30T06:27:19.494Z,9.80
2022-08-30T06:28:06.915Z,9.38
2022-08-30T06:28:54.525Z,9.50
2022-08-30T06:29:42.035Z,9.02
2022-08-30T06:30:28.837Z,9.25
2022-08-30T06:31:17.794Z,9.23
2022-08-30T06:32:05.160Z,8.98
2022-08-30T06:32:52.050Z,9.18
2022-08-30T06:33:39.300Z,9.68
2022-08-30T06:34:27.299Z,9.23
2022-08-30T06:35:14.326Z,10.20
2022-08-30T06:36:09.635Z,9.02
2022-08-30T06:36:56.495Z,9.38
2022-08-30T06:37:43.908Z,9.90
2022-08-30T06:38:30.694Z,10.38
2022-08-30T06:39:17.447Z,9.40
2022-08-30T06:40:05.078Z,9.45
2022-08-30T06:40:51.924Z,9.77
2022-08-30T06:41:40.479Z,9.80
2022-08-30T06:42:32.352Z,9.20
2022-08-30T06:43:19.446Z,9.52
2022-08-30T06:44:06.783Z,9.88
2022-08-30T06:44:55.848Z,9.50
2022-08-30T06:45:42.669Z,10.00
2022-08-30T06:46:32.753Z,9.15
2022-08-30T06:47:19.767Z,8.98
2022-08-30T06:48:06.608Z,9.07
2022-08-30T06:48:56.163Z,8.68
2022-08-30T06:49:43.492Z,9.63
2022-08-30T06:50:32.096Z,10.23
2022-08-30T06:51:31.811Z,9.30
2022-08-30T06:52:21.287Z,9.70
2022-08-30T06:53:09.400Z,9.18
2022-08-30T06:53:56.728Z,8.90
2022-08-30T06:54:44.167Z,9.18
2022-08-30T06:55:33.464Z,9.43
2022-08-30T06:56:22.174Z,8.98
2022-08-30T06:57:09.259Z,8.95
2022-08-30T06:57:56.080Z,8.57
2022-08-30T06:58:43.155Z,9.10
2022-08-30T06:59:29.972Z,9.30
2022-08-30T07:00:17.447Z,9.13
2022-08-30T07:01:05.894Z,9.50
2022-08-30T07:01:52.765Z,8.65
2022-08-30T07:02:40.064Z,9.02
2022-08-30T07:03:27.541Z,8.63
2022-08-30T07:04:14.582Z,9.10
2022-08-30T07:05:02.739Z,9.10
2022-08-30T07:05:50.265Z,8.77
2022-08-30T07:06:37.076Z,9.18
2022-08-30T07:07:24.266Z,9.43
2022-08-30T07:08:11.110Z,8.18
2022-08-30T07:08:58.142Z,8.80
2022-08-30T07:09:45.021Z,9.52
2022-08-30T07:10:31.826Z,9.60
2022-08-30T07:11:28.476Z,9.40
2022-08-30T07:12:15.966Z,9.60
2022-08-30T07:13:02.912Z,9.07
2022-08-30T07:13:49.637Z,9.00
2022-08-30T07:14:37.108Z,9.25
2022-08-30T07:15:24.101Z,9.43
2022-08-30T07:16:12.281Z,9.95
2022-08-30T07:16:59.343Z,9.40
2022-08-30T07:18:05.226Z,9.63
2022-08-30T07:18:54.735Z,9.10
2022-08-30T07:19:41.601Z,9.15
2022-08-30T07:20:39.997Z,9.85
2022-08-30T07:21:39.028Z,10.00
2022-08-30T07:22:25.737Z,9.38
2022-08-30T07:23:12.913Z,9.80
2022-08-30T07:24:00.701Z,9.00
2022-08-30T07:24:48.488Z,9.57
2022-08-30T07:25:37.072Z,9.65
2022-08-30T07:26:53.865Z,9.52
2022-08-30T07:27:40.770Z,9.80
2022-08-30T07:28:27.743Z,9.98
2022-08-30T07:29:15.541Z,9.43
2022-08-30T07:30:03.978Z,9.20
2022-08-30T07:30:51.635Z,9.43
2022-08-30T07:31:38.567Z,9.80
2022-08-30T07:32:25.861Z,9.20
2022-08-30T07:33:12.812Z,10.70
2022-08-30T07:33:59.881Z,9.20
2022-08-30T07:34:46.727Z,9.48
2022-08-30T07:35:34.273Z,10.18
2022-08-30T07:36:22.217Z,9.95
2022-08-30T07:37:09.011Z,9.65
2022-08-30T07:37:55.814Z,9.15
2022-08-30T07:38:42.674Z,9.45
2022-08-30T07:39:29.660Z,9.27
2022-08-30T07:40:18.880Z,9.40
2022-08-30T07:41:06.266Z,9.32
2022-08-30T07:41:53.126Z,9.75
2022-08-30T07:42:41.155Z,9.77
2022-08-30T07:43:29.042Z,9.13
2022-08-30T07:44:15.820Z,8.93
2022-08-30T07:45:03.564Z,9.20
2022-08-30T07:45:50.385Z,9.32
2022-08-30T07:46:40.903Z,9.20
2022-08-30T07:48:14.683Z,9.18
2022-08-30T07:49:01.943Z,9.38
2022-08-30T07:49:51.082Z,9.32
2022-08-30T07:50:38.937Z,9.18
2022-08-30T07:51:26.924Z,9.63
2022-08-30T07:52:13.818Z,9.10
2022-08-30T07:53:00.784Z,9.18
2022-08-30T07:53:48.140Z,9.00
2022-08-30T07:54:35.361Z,8.40
2022-08-30T07:55:22.289Z,9.23
2022-08-30T07:56:09.572Z,9.00
2022-08-30T07:56:56.519Z,8.52
2022-08-30T07:57:43.448Z,8.57
2022-08-30T07:58:30.360Z,9.02
2022-08-30T07:59:17.167Z,8.93
2022-08-30T08:00:05.341Z,9.13
2022-08-30T08:00:52.309Z,9.07
2022-08-30T08:01:39.254Z,8.75
2022-08-30T08:02:26.434Z,9.10
2022-08-30T08:03:13.624Z,8.13
2022-08-30T08:04:00.511Z,8.43
2022-08-30T08:04:48.665Z,8.43
2022-08-30T08:05:42.997Z,7.70
2022-08-30T08:06:34.947Z,8.23
2022-08-30T08:07:22.994Z,8.20
2022-08-30T08:08:10.846Z,8.02
2022-08-30T08:09:02.363Z,8.52
2022-08-30T08:09:49.601Z,8.60
2022-08-30T08:10:38.412Z,8.80
2022-08-30T08:11:29.426Z,8.60
2022-08-30T08:12:18.762Z,8.75
2022-08-30T08:13:06.147Z,8.77
2022-08-30T08:13:54.603Z,8.88
2022-08-30T08:14:41.761Z,9.18
2022-08-30T08:15:29.205Z,8.88
2022-08-30T08:16:16.537Z,8.70
2022-08-30T08:17:05.287Z,8.98
2022-08-30T08:17:52.269Z,9.48
2022-08-30T08:18:39.081Z,8.63
2022-08-30T08:19:26.105Z,9.50
2022-08-30T08:20:12.937Z,9.82
2022-08-30T08:21:00.326Z,8.65
2022-08-30T08:21:48.639Z,8.73
2022-08-30T08:22:40.057Z,9.25
2022-08-30T08:23:27.550Z,8.55
2022-08-30T08:24:14.897Z,9.25
2022-08-30T08:25:01.896Z,9.40
2022-08-30T08:25:48.801Z,9.02
2022-08-30T08:26:37.093Z,9.70
2022-08-30T08:27:25.026Z,9.30
2022-08-30T08:28:11.885Z,9.50
2022-08-30T08:28:58.854Z,9.25
2022-08-30T08:29:45.732Z,9.77
2022-08-30T08:30:35.092Z,8.82
2022-08-30T08:31:27.060Z,8.35
2022-08-30T08:32:19.075Z,8.20
2022-08-30T08:33:08.764Z,8.70
2022-08-30T08:33:56.745Z,8.90
2022-08-30T08:34:43.807Z,8.98
2022-08-30T08:35:30.599Z,8.85
2022-08-30T08:36:18.758Z,8.13
2022-08-30T08:37:05.532Z,8.23
2022-08-30T08:37:52.488Z,8.48
2022-08-30T08:38:39.567Z,8.20
2022-08-30T08:39:26.987Z,8.93
2022-08-30T08:40:18.924Z,9.07
2022-08-30T08:41:13.606Z,7.87
2022-08-30T08:42:14.780Z,8.18
2022-08-30T08:43:20.105Z,8.35
2022-08-30T08:44:29.267Z,8.18
2022-08-30T08:45:28.172Z,8.30
2022-08-30T08:46:31.423Z,9.25
2022-08-30T08:47:55.201Z,9.55
2022-08-30T08:48:59.539Z,8.77
2022-08-30T08:49:49.660Z,7.72
2022-08-30T08:50:36.967Z,8.38
2022-08-30T08:51:45.970Z,9.50
2022-08-30T08:53:24.999Z,9.00
2022-08-30T08:54:33.734Z,9.80
2022-08-30T08:55:22.654Z,8.50
2022-08-30T08:56:15.601Z,9.00
2022-08-30T08:57:02.612Z,8.70
2022-08-30T08:57:49.496Z,9.10
2022-08-30T08:58:45.522Z,7.65
2022-08-30T08:59:32.509Z,7.70
2022-08-30T09:00:19.482Z,8.15
2022-08-30T09:01:08.864Z,7.72
2022-08-30T09:01:59.323Z,8.02
2022-08-30T09:03:43.766Z,7.70
2022-08-30T09:04:34.901Z,7.55
2022-08-30T09:05:26.225Z,7.75
2022-08-30T09:06:35.265Z,8.60
2022-08-30T09:07:25.177Z,7.82
2022-08-30T09:08:14.960Z,7.40
2022-08-30T09:09:01.896Z,7.62
2022-08-30T09:09:50.053Z,7.68
2022-08-30T09:10:49.917Z,7.62
2022-08-30T09:12:24.966Z,8.10
2022-08-30T09:13:13.752Z,8.75
2022-08-30T09:14:00.988Z,7.70
2022-08-30T09:14:55.475Z,7.05
2022-08-30T09:15:43.100Z,7.32
2022-08-30T09:16:49.443Z,6.70
2022-08-30T09:17:53.424Z,7.50
2022-08-30T09:18:54.658Z,7.00
2022-08-30T09:19:52.119Z,6.60
2022-08-30T09:20:43.342Z,7.12
2022-08-30T09:21:30.673Z,6.78
2022-08-30T09:22:26.981Z,7.78
2022-08-30T09:23:13.640Z,7.37
2022-08-30T09:24:11.253Z,7.07
2022-08-30T09:25:09.703Z,6.90
2022-08-30T09:26:02.160Z,6.43
2022-08-30T09:26:48.960Z,7.20
2022-08-30T09:27:42.319Z,6.90
2022-08-30T09:28:35.280Z,7.30
2022-08-30T09:29:22.926Z,6.00
2022-08-30T09:30:23.704Z,7.00
2022-08-30T09:31:24.643Z,7.55
2022-08-30T09:32:25.630Z,6.40
2022-08-30T09:33:20.409Z,6.78
2022-08-30T09:34:09.385Z,6.20
2022-08-30T09:34:56.245Z,6.62
2022-08-30T09:35:47.927Z,5.72
2022-08-30T09:36:46.362Z,6.10
2022-08-30T09:37:39.942Z,6.28
2022-08-30T09:38:32.948Z,5.95
2022-08-30T09:39:32.111Z,5.97
2022-08-30T09:40:26.302Z,6.22
2022-08-30T09:41:43.729Z,6.07
2022-08-30T09:42:31.098Z,5.70
2022-08-30T09:43:17.739Z,7.35
2022-08-30T09:44:08.082Z,6.10
2022-08-30T09:46:24.626Z,6.20
2022-08-30T09:47:29.413Z,6.05
2022-08-30T09:48:27.796Z,6.45
2022-08-30T09:49:37.995Z,6.60
2022-08-30T09:50:28.132Z,6.28
2022-08-30T09:51:19.388Z,5.75
2022-08-30T09:52:41.926Z,5.78
2022-08-30T09:53:34.830Z,5.93
2022-08-30T09:54:36.933Z,5.75
2022-08-30T09:56:00.027Z,5.82
2022-08-30T09:57:12.651Z,5.62
2022-08-30T09:58:10.149Z,5.90
2022-08-30T09:59:11.848Z,5.90
2022-08-30T10:00:05.477Z,6.18
2022-08-30T10:00:57.810Z,5.87
2022-08-30T10:01:53.897Z,5.53
2022-08-30T10:02:49.747Z,5.78
2022-08-30T10:03:41.525Z,6.43
2022-08-30T10:04:48.776Z,5.82
2022-08-30T10:06:04.087Z,5.62
2022-08-30T10:06:59.701Z,5.32
2022-08-30T10:08:05.905Z,5.97
2022-08-30T10:09:20.926Z,5.10
2022-08-30T10:10:14.927Z,5.57
2022-08-30T10:11:12.667Z,5.70
2022-08-30T10:12:23.494Z,5.65
2022-08-30T10:14:20.090Z,5.62
2022-08-30T10:15:53.578Z,5.30
2022-08-30T10:16:47.360Z,5.55
2022-08-30T10:18:05.648Z,5.97
2022-08-30T10:19:33.105Z,5.10
2022-08-30T10:20:35.961Z,5.12
2022-08-30T10:21:38.467Z,5.55
2022-08-30T10:22:42.419Z,5.18
2022-08-30T10:23:44.222Z,5.62
2022-08-30T10:24:46.329Z,5.40
2022-08-30T10:25:44.886Z,5.60
2022-08-30T10:26:35.983Z,6.10
2022-08-30T10:27:30.523Z,5.50
2022-08-30T10:28:33.350Z,5.80
2022-08-30T10:29:29.054Z,5.97
2022-08-30T10:30:17.246Z,5.55
2022-08-30T10:31:09.385Z,6.03
2022-08-30T10:32:07.196Z,6.00
2022-08-30T10:33:16.315Z,5.30
2022-08-30T10:34:48.438Z,5.32
2022-08-30T10:35:51.607Z,5.90
2022-08-30T10:36:46.098Z,5.82
2022-08-30T10:37:38.964Z,5.03
2022-08-30T10:38:41.046Z,5.50
2022-08-30T10:39:32.320Z,5.62
2022-08-30T10:40:45.733Z,5.22
2022-08-30T10:41:42.362Z,5.55
2022-08-30T10:42:37.972Z,5.35
2022-08-30T10:43:59.048Z,5.43
2022-08-30T10:44:50.246Z,4.90
2022-08-30T10:45:41.444Z,5.18
2022-08-30T10:47:02.939Z,4.97
2022-08-30T10:47:55.802Z,5.05
2022-08-30T10:48:47.554Z,5.20
2022-08-30T10:49:40.462Z,5.28
2022-08-30T10:50:41.292Z,4.90
2022-08-30T10:51:33.507Z,5.05
2022-08-30T10:53:02.841Z,5.10
2022-08-30T10:54:18.724Z,4.78
2022-08-30T10:55:15.242Z,4.78
2022-08-30T10:56:11.475Z,5.28
2022-08-30T10:57:01.544Z,4.82
2022-08-30T10:57:49.856Z,5.22
2022-08-30T10:58:40.788Z,4.82
2022-08-30T10:59:28.810Z,5.00
2022-08-30T11:00:29.726Z,4.90
2022-08-30T11:01:46.444Z,5.10
2022-08-30T11:03:13.204Z,4.70
2022-08-30T11:04:14.824Z,4.65
2022-08-30T11:05:17.708Z,4.78
2022-08-30T11:06:05.024Z,4.93
2022-08-30T11:06:57.927Z,4.90
2022-08-30T11:08:02.845Z,4.82
2022-08-30T11:09:31.736Z,4.93
2022-08-30T11:10:49.587Z,4.80
2022-08-30T11:12:08.307Z,4.82
2022-08-30T11:12:58.685Z,4.53
2022-08-30T11:13:48.909Z,4.70
2022-08-30T11:14:40.616Z,4.95
2022-08-30T11:15:35.102Z,4.50
2022-08-30T11:16:35.216Z,4.72
2022-08-30T11:17:27.391Z,5.30
2022-08-30T11:18:14.506Z,4.90
2022-08-30T11:19:01.330Z,4.60
2022-08-30T11:19:49.204Z,5.00